Hauptseite
METAR-TAF:

METAR-TAF

Flughäfen :

Kiel, Deutschland

Flughafen Kiel

Breite: 54-23N, Länge: 010-10E, Höhe: 31 m

Beobachtung

Neuester Wetterbericht von vor 38 Minuten, um 07:50 UTC
Wind 13 kt aus Südwest, Böen bis zu 23 kt
Temperatur 6°C
Luftfeuchtigkeit 93%
Luftdruck 1009 hPa
Sichtweite: 8000 m
Durchbrochene Bewölkung in der Höhe von 1000 ft
Leichtregen

METAR: EDHK 180750Z 22013G23KT 8000 -RA BKN010 06/05 Q1009

Zeit: 09:28 (08:28 UTC)

Prognose

Neuester Wetterbericht von vor 18 Stunden und 28 Minuten, um 14:00 UTC
Gültige Prognose vom 17 um 15 UTC bis 17 um 18 UTC
Wind 7 kt aus West/Südwest
Sichtweite 10 km oder mehr
Leicht bewölkt in der Höhe von 2500 ft

TAF: EDHK 171400Z 1715/1718 24007KT 9999 FEW025

Wetterbeobachtungen und Prognosen von mehr als 4000 Flughäfen (METAR und TAF Bericht).

Die verfügbaren Stationen werden durch gelbe und rote Markierungen auf der Karte dargestellt.

Führen Sie die Maus auf sie, um den Namen der Station zu sehen.

Darauf klicken, um die Beobachtung von Wetterbeobachtungen und Prognosen zu sehen.

Um die Karte zu ändern : klicken Sie auf den grünen Tasten mit einem schwarzen Kreuz Zum Vergrößern, auf den grünen Button mit einem Gedankenstrich zu verkleinern, oder auf die grünen Pfeile für benachbarte Karten.


METAR-TAF: